sensor_id;sensor_type;location;lat;lon;timestamp;P1;durP1;ratioP1;P2;durP2;ratioP2
29026;SDS011;16120;48.608;9.092;2023-11-19T00:00:39;111.73;;;7.93;;
29026;SDS011;16120;48.608;9.092;2023-11-19T00:04:37;111.70;;;7.80;;
29026;SDS011;16120;48.608;9.092;2023-11-19T00:08:35;111.40;;;7.80;;
29026;SDS011;16120;48.608;9.092;2023-11-19T00:12:30;111.57;;;7.77;;
29026;SDS011;16120;48.608;9.092;2023-11-19T00:16:25;111.70;;;7.80;;
29026;SDS011;16120;48.608;9.092;2023-11-19T00:20:22;111.88;;;7.72;;
29026;SDS011;16120;48.608;9.092;2023-11-19T00:24:18;111.47;;;7.53;;
29026;SDS011;16120;48.608;9.092;2023-11-19T00:28:14;111.37;;;7.43;;
29026;SDS011;16120;48.608;9.092;2023-11-19T00:32:09;111.27;;;7.50;;
29026;SDS011;16120;48.608;9.092;2023-11-19T00:36:06;110.97;;;7.57;;
29026;SDS011;16120;48.608;9.092;2023-11-19T00:40:02;110.97;;;7.47;;
29026;SDS011;16120;48.608;9.092;2023-11-19T00:43:57;110.60;;;7.40;;
29026;SDS011;16120;48.608;9.092;2023-11-19T00:47:52;110.50;;;7.40;;
29026;SDS011;16120;48.608;9.092;2023-11-19T00:51:51;111.30;;;7.70;;
29026;SDS011;16120;48.608;9.092;2023-11-19T00:55:47;110.47;;;7.60;;
29026;SDS011;16120;48.608;9.092;2023-11-19T00:59:42;111.27;;;7.87;;
29026;SDS011;16120;48.608;9.092;2023-11-19T01:03:37;110.80;;;7.33;;
29026;SDS011;16120;48.608;9.092;2023-11-19T01:07:34;110.05;;;7.68;;
29026;SDS011;16120;48.608;9.092;2023-11-19T01:11:30;110.83;;;7.63;;
29026;SDS011;16120;48.608;9.092;2023-11-19T01:15:25;111.07;;;7.47;;
29026;SDS011;16120;48.608;9.092;2023-11-19T01:19:21;110.73;;;7.47;;
29026;SDS011;16120;48.608;9.092;2023-11-19T01:23:17;110.77;;;7.43;;
29026;SDS011;16120;48.608;9.092;2023-11-19T01:27:13;110.67;;;7.33;;
29026;SDS011;16120;48.608;9.092;2023-11-19T01:31:08;110.90;;;7.37;;
29026;SDS011;16120;48.608;9.092;2023-11-19T01:35:03;111.07;;;7.43;;
29026;SDS011;16120;48.608;9.092;2023-11-19T01:39:00;110.43;;;7.47;;
29026;SDS011;16120;48.608;9.092;2023-11-19T01:42:55;110.60;;;7.47;;
29026;SDS011;16120;48.608;9.092;2023-11-19T01:46:51;110.13;;;7.50;;
29026;SDS011;16120;48.608;9.092;2023-11-19T01:50:46;110.40;;;7.50;;
29026;SDS011;16120;48.608;9.092;2023-11-19T01:54:43;110.82;;;7.45;;
29026;SDS011;16120;48.608;9.092;2023-11-19T01:58:38;110.67;;;7.30;;
29026;SDS011;16120;48.608;9.092;2023-11-19T02:02:35;110.03;;;7.63;;
29026;SDS011;16120;48.608;9.092;2023-11-19T02:06:30;109.80;;;7.33;;
29026;SDS011;16120;48.608;9.092;2023-11-19T02:10:30;110.77;;;7.50;;
29026;SDS011;16120;48.608;9.092;2023-11-19T02:14:25;110.77;;;7.67;;
29026;SDS011;16120;48.608;9.092;2023-11-19T02:18:21;110.53;;;7.40;;
29026;SDS011;16120;48.608;9.092;2023-11-19T02:22:19;110.07;;;7.43;;
29026;SDS011;16120;48.608;9.092;2023-11-19T02:26:16;110.20;;;7.20;;
29026;SDS011;16120;48.608;9.092;2023-11-19T02:30:14;109.73;;;7.27;;
29026;SDS011;16120;48.608;9.092;2023-11-19T02:34:10;110.77;;;7.53;;
29026;SDS011;16120;48.608;9.092;2023-11-19T02:38:05;109.67;;;7.33;;
29026;SDS011;16120;48.608;9.092;2023-11-19T02:42:00;109.60;;;7.40;;
29026;SDS011;16120;48.608;9.092;2023-11-19T02:45:57;110.28;;;7.15;;
29026;SDS011;16120;48.608;9.092;2023-11-19T02:49:52;109.97;;;7.20;;
29026;SDS011;16120;48.608;9.092;2023-11-19T02:53:47;110.07;;;7.30;;
29026;SDS011;16120;48.608;9.092;2023-11-19T02:57:43;109.60;;;7.30;;
29026;SDS011;16120;48.608;9.092;2023-11-19T03:01:39;108.95;;;7.38;;
29026;SDS011;16120;48.608;9.092;2023-11-19T03:05:35;110.07;;;7.10;;
29026;SDS011;16120;48.608;9.092;2023-11-19T03:09:30;108.87;;;7.03;;
29026;SDS011;16120;48.608;9.092;2023-11-19T03:13:25;109.13;;;7.18;;
29026;SDS011;16120;48.608;9.092;2023-11-19T03:17:21;109.93;;;7.33;;
29026;SDS011;16120;48.608;9.092;2023-11-19T03:21:17;109.87;;;7.40;;
29026;SDS011;16120;48.608;9.092;2023-11-19T03:25:12;109.30;;;7.37;;
29026;SDS011;16120;48.608;9.092;2023-11-19T03:29:08;108.70;;;7.53;;
29026;SDS011;16120;48.608;9.092;2023-11-19T03:33:04;109.67;;;7.50;;
29026;SDS011;16120;48.608;9.092;2023-11-19T03:37:00;109.07;;;7.33;;
29026;SDS011;16120;48.608;9.092;2023-11-19T03:40:55;109.67;;;7.47;;
29026;SDS011;16120;48.608;9.092;2023-11-19T03:44:50;109.17;;;7.40;;
29026;SDS011;16120;48.608;9.092;2023-11-19T03:52:58;109.00;;;7.33;;
29026;SDS011;16120;48.608;9.092;2023-11-19T05:02:15;108.97;;;7.23;;
29026;SDS011;16120;48.608;9.092;2023-11-19T05:06:10;108.20;;;7.20;;
29026;SDS011;16120;48.608;9.092;2023-11-19T05:10:06;108.37;;;7.07;;
29026;SDS011;16120;48.608;9.092;2023-11-19T05:14:02;108.67;;;7.30;;
29026;SDS011;16120;48.608;9.092;2023-11-19T05:17:58;109.07;;;7.30;;
29026;SDS011;16120;48.608;9.092;2023-11-19T05:21:53;107.50;;;7.07;;
29026;SDS011;16120;48.608;9.092;2023-11-19T05:25:49;109.50;;;7.47;;
29026;SDS011;16120;48.608;9.092;2023-11-19T05:29:44;107.63;;;7.33;;
29026;SDS011;16120;48.608;9.092;2023-11-19T05:33:41;108.47;;;7.07;;
29026;SDS011;16120;48.608;9.092;2023-11-19T05:37:36;108.17;;;7.30;;
29026;SDS011;16120;48.608;9.092;2023-11-19T05:41:31;107.27;;;7.07;;
29026;SDS011;16120;48.608;9.092;2023-11-19T05:45:26;107.80;;;7.47;;
29026;SDS011;16120;48.608;9.092;2023-11-19T05:53:33;107.37;;;7.07;;
29026;SDS011;16120;48.608;9.092;2023-11-19T05:57:28;108.17;;;7.40;;
29026;SDS011;16120;48.608;9.092;2023-11-19T06:01:23;107.63;;;7.03;;
29026;SDS011;16120;48.608;9.092;2023-11-19T06:05:19;108.57;;;7.40;;
29026;SDS011;16120;48.608;9.092;2023-11-19T06:09:16;107.77;;;6.83;;
29026;SDS011;16120;48.608;9.092;2023-11-19T06:13:12;108.37;;;7.10;;
29026;SDS011;16120;48.608;9.092;2023-11-19T06:17:07;107.70;;;6.93;;
29026;SDS011;16120;48.608;9.092;2023-11-19T06:21:02;108.13;;;6.75;;
29026;SDS011;16120;48.608;9.092;2023-11-19T06:24:59;107.50;;;7.10;;
29026;SDS011;16120;48.608;9.092;2023-11-19T06:28:55;109.03;;;7.17;;
29026;SDS011;16120;48.608;9.092;2023-11-19T06:32:51;107.57;;;7.33;;
29026;SDS011;16120;48.608;9.092;2023-11-19T06:36:46;108.17;;;7.27;;
29026;SDS011;16120;48.608;9.092;2023-11-19T06:40:42;107.60;;;7.30;;
29026;SDS011;16120;48.608;9.092;2023-11-19T06:44:38;108.27;;;7.00;;
29026;SDS011;16120;48.608;9.092;2023-11-19T06:48:33;107.97;;;7.13;;
29026;SDS011;16120;48.608;9.092;2023-11-19T06:52:28;106.65;;;6.88;;
29026;SDS011;16120;48.608;9.092;2023-11-19T06:56:25;106.27;;;6.93;;
29026;SDS011;16120;48.608;9.092;2023-11-19T07:00:20;107.67;;;7.47;;
29026;SDS011;16120;48.608;9.092;2023-11-19T07:04:16;108.28;;;7.35;;
29026;SDS011;16120;48.608;9.092;2023-11-19T07:08:11;106.67;;;7.07;;
29026;SDS011;16120;48.608;9.092;2023-11-19T07:12:08;107.57;;;7.33;;
29026;SDS011;16120;48.608;9.092;2023-11-19T07:16:03;107.40;;;7.13;;
29026;SDS011;16120;48.608;9.092;2023-11-19T07:19:59;107.60;;;7.13;;
29026;SDS011;16120;48.608;9.092;2023-11-19T07:23:54;107.20;;;7.10;;
29026;SDS011;16120;48.608;9.092;2023-11-19T07:27:51;107.18;;;7.28;;
29026;SDS011;16120;48.608;9.092;2023-11-19T07:31:46;106.87;;;7.00;;
29026;SDS011;16120;48.608;9.092;2023-11-19T07:35:42;107.30;;;7.17;;
29026;SDS011;16120;48.608;9.092;2023-11-19T07:39:37;106.57;;;7.07;;
29026;SDS011;16120;48.608;9.092;2023-11-19T07:43:34;106.83;;;7.03;;
29026;SDS011;16120;48.608;9.092;2023-11-19T07:47:29;106.63;;;7.00;;
29026;SDS011;16120;48.608;9.092;2023-11-19T07:51:25;107.33;;;7.40;;
29026;SDS011;16120;48.608;9.092;2023-11-19T07:55:20;106.47;;;7.43;;
29026;SDS011;16120;48.608;9.092;2023-11-19T07:59:17;107.43;;;7.55;;
29026;SDS011;16120;48.608;9.092;2023-11-19T08:03:12;106.90;;;7.73;;
29026;SDS011;16120;48.608;9.092;2023-11-19T08:07:07;107.43;;;7.63;;
29026;SDS011;16120;48.608;9.092;2023-11-19T08:11:03;106.97;;;7.33;;
29026;SDS011;16120;48.608;9.092;2023-11-19T08:15:00;106.30;;;7.17;;
29026;SDS011;16120;48.608;9.092;2023-11-19T08:18:55;106.70;;;7.33;;
29026;SDS011;16120;48.608;9.092;2023-11-19T08:22:50;107.23;;;7.67;;
29026;SDS011;16120;48.608;9.092;2023-11-19T08:26:45;106.77;;;7.13;;
29026;SDS011;16120;48.608;9.092;2023-11-19T08:30:42;106.83;;;7.37;;
29026;SDS011;16120;48.608;9.092;2023-11-19T08:34:37;106.23;;;7.30;;
29026;SDS011;16120;48.608;9.092;2023-11-19T08:38:33;106.97;;;7.47;;
29026;SDS011;16120;48.608;9.092;2023-11-19T08:42:29;106.60;;;7.30;;
29026;SDS011;16120;48.608;9.092;2023-11-19T08:46:28;106.67;;;7.40;;
29026;SDS011;16120;48.608;9.092;2023-11-19T08:50:24;106.57;;;7.53;;
29026;SDS011;16120;48.608;9.092;2023-11-19T08:54:19;106.87;;;7.37;;
29026;SDS011;16120;48.608;9.092;2023-11-19T08:58:14;106.72;;;7.70;;
29026;SDS011;16120;48.608;9.092;2023-11-19T09:02:11;106.20;;;7.37;;
29026;SDS011;16120;48.608;9.092;2023-11-19T09:06:06;106.97;;;7.77;;
29026;SDS011;16120;48.608;9.092;2023-11-19T09:10:02;106.87;;;7.27;;
29026;SDS011;16120;48.608;9.092;2023-11-19T09:13:57;107.27;;;8.07;;
29026;SDS011;16120;48.608;9.092;2023-11-19T09:17:54;106.20;;;7.47;;
29026;SDS011;16120;48.608;9.092;2023-11-19T09:21:49;106.50;;;7.53;;
29026;SDS011;16120;48.608;9.092;2023-11-19T09:25:44;105.93;;;7.83;;
29026;SDS011;16120;48.608;9.092;2023-11-19T09:29:39;106.87;;;8.27;;
29026;SDS011;16120;48.608;9.092;2023-11-19T09:33:36;107.43;;;8.10;;
29026;SDS011;16120;48.608;9.092;2023-11-19T09:37:31;106.60;;;8.33;;
29026;SDS011;16120;48.608;9.092;2023-11-19T09:41:26;106.80;;;8.10;;
29026;SDS011;16120;48.608;9.092;2023-11-19T09:45:22;106.67;;;8.37;;
29026;SDS011;16120;48.608;9.092;2023-11-19T09:49:22;106.97;;;8.33;;
29026;SDS011;16120;48.608;9.092;2023-11-19T09:53:19;107.77;;;8.10;;
29026;SDS011;16120;48.608;9.092;2023-11-19T09:57:15;106.63;;;8.47;;
29026;SDS011;16120;48.608;9.092;2023-11-19T10:01:11;106.47;;;8.20;;
29026;SDS011;16120;48.608;9.092;2023-11-19T10:05:08;106.50;;;7.97;;
29026;SDS011;16120;48.608;9.092;2023-11-19T10:09:04;106.47;;;7.93;;
29026;SDS011;16120;48.608;9.092;2023-11-19T10:13:00;105.97;;;8.07;;
29026;SDS011;16120;48.608;9.092;2023-11-19T10:16:55;106.00;;;7.83;;
29026;SDS011;16120;48.608;9.092;2023-11-19T10:20:52;106.40;;;8.30;;
29026;SDS011;16120;48.608;9.092;2023-11-19T10:24:48;106.53;;;8.23;;
29026;SDS011;16120;48.608;9.092;2023-11-19T10:28:43;106.07;;;8.03;;
29026;SDS011;16120;48.608;9.092;2023-11-19T10:32:38;105.82;;;7.78;;
29026;SDS011;16120;48.608;9.092;2023-11-19T10:36:40;105.97;;;8.10;;
29026;SDS011;16120;48.608;9.092;2023-11-19T10:40:39;106.07;;;8.03;;
29026;SDS011;16120;48.608;9.092;2023-11-19T10:44:34;105.50;;;8.07;;
29026;SDS011;16120;48.608;9.092;2023-11-19T10:48:31;105.57;;;7.87;;
29026;SDS011;16120;48.608;9.092;2023-11-19T10:52:27;105.47;;;8.50;;
29026;SDS011;16120;48.608;9.092;2023-11-19T10:56:23;105.17;;;8.70;;
29026;SDS011;16120;48.608;9.092;2023-11-19T11:00:20;105.77;;;8.80;;
29026;SDS011;16120;48.608;9.092;2023-11-19T11:04:19;104.67;;;7.90;;
29026;SDS011;16120;48.608;9.092;2023-11-19T11:08:16;105.30;;;8.63;;
29026;SDS011;16120;48.608;9.092;2023-11-19T11:12:12;104.50;;;7.70;;
29026;SDS011;16120;48.608;9.092;2023-11-19T11:16:08;104.47;;;7.93;;
29026;SDS011;16120;48.608;9.092;2023-11-19T11:20:04;105.07;;;8.10;;
29026;SDS011;16120;48.608;9.092;2023-11-19T11:24:09;104.77;;;8.20;;
29026;SDS011;16120;48.608;9.092;2023-11-19T11:28:11;104.37;;;7.87;;
29026;SDS011;16120;48.608;9.092;2023-11-19T11:32:13;105.13;;;8.00;;
29026;SDS011;16120;48.608;9.092;2023-11-19T11:36:13;105.00;;;8.20;;
29026;SDS011;16120;48.608;9.092;2023-11-19T11:40:17;105.17;;;8.43;;
29026;SDS011;16120;48.608;9.092;2023-11-19T11:44:12;104.77;;;8.20;;
29026;SDS011;16120;48.608;9.092;2023-11-19T11:48:11;105.07;;;8.40;;
29026;SDS011;16120;48.608;9.092;2023-11-19T11:52:06;106.27;;;8.40;;
29026;SDS011;16120;48.608;9.092;2023-11-19T11:56:03;104.97;;;8.50;;
29026;SDS011;16120;48.608;9.092;2023-11-19T11:59:58;104.67;;;8.10;;
29026;SDS011;16120;48.608;9.092;2023-11-19T12:03:57;105.30;;;8.40;;
29026;SDS011;16120;48.608;9.092;2023-11-19T12:07:54;104.47;;;8.20;;
29026;SDS011;16120;48.608;9.092;2023-11-19T12:11:51;104.77;;;8.27;;
29026;SDS011;16120;48.608;9.092;2023-11-19T12:16:08;105.17;;;8.50;;
29026;SDS011;16120;48.608;9.092;2023-11-19T12:20:04;104.77;;;8.30;;
29026;SDS011;16120;48.608;9.092;2023-11-19T12:24:00;104.57;;;8.27;;
29026;SDS011;16120;48.608;9.092;2023-11-19T12:27:58;104.70;;;8.33;;
29026;SDS011;16120;48.608;9.092;2023-11-19T12:31:55;104.67;;;8.63;;
29026;SDS011;16120;48.608;9.092;2023-11-19T12:35:50;104.25;;;8.18;;
29026;SDS011;16120;48.608;9.092;2023-11-19T12:39:45;105.20;;;8.10;;
29026;SDS011;16120;48.608;9.092;2023-11-19T12:43:42;105.13;;;8.60;;
29026;SDS011;16120;48.608;9.092;2023-11-19T12:47:38;104.60;;;8.70;;
29026;SDS011;16120;48.608;9.092;2023-11-19T12:51:33;104.30;;;8.63;;
29026;SDS011;16120;48.608;9.092;2023-11-19T12:55:28;105.10;;;8.45;;
29026;SDS011;16120;48.608;9.092;2023-11-19T12:59:25;104.87;;;8.67;;
29026;SDS011;16120;48.608;9.092;2023-11-19T13:03:28;104.47;;;8.33;;
29026;SDS011;16120;48.608;9.092;2023-11-19T13:07:24;104.57;;;8.40;;
29026;SDS011;16120;48.608;9.092;2023-11-19T13:11:30;105.07;;;8.43;;
29026;SDS011;16120;48.608;9.092;2023-11-19T13:15:26;105.07;;;8.53;;
29026;SDS011;16120;48.608;9.092;2023-11-19T13:19:22;104.53;;;8.50;;
29026;SDS011;16120;48.608;9.092;2023-11-19T13:23:17;104.20;;;9.07;;
29026;SDS011;16120;48.608;9.092;2023-11-19T13:27:13;104.37;;;8.30;;
29026;SDS011;16120;48.608;9.092;2023-11-19T13:31:09;104.30;;;8.30;;
29026;SDS011;16120;48.608;9.092;2023-11-19T13:35:05;105.60;;;10.00;;
29026;SDS011;16120;48.608;9.092;2023-11-19T13:39:00;105.17;;;8.60;;
29026;SDS011;16120;48.608;9.092;2023-11-19T13:42:55;104.17;;;8.87;;
29026;SDS011;16120;48.608;9.092;2023-11-19T13:46:52;104.67;;;8.60;;
29026;SDS011;16120;48.608;9.092;2023-11-19T13:50:47;105.27;;;8.90;;
29026;SDS011;16120;48.608;9.092;2023-11-19T13:54:42;105.37;;;9.10;;
29026;SDS011;16120;48.608;9.092;2023-11-19T13:58:38;105.18;;;8.85;;
29026;SDS011;16120;48.608;9.092;2023-11-19T14:02:34;104.57;;;8.53;;
29026;SDS011;16120;48.608;9.092;2023-11-19T14:06:29;104.87;;;9.30;;
29026;SDS011;16120;48.608;9.092;2023-11-19T14:10:25;104.73;;;8.60;;
29026;SDS011;16120;48.608;9.092;2023-11-19T14:14:20;104.83;;;8.50;;
29026;SDS011;16120;48.608;9.092;2023-11-19T14:18:16;104.10;;;9.10;;
29026;SDS011;16120;48.608;9.092;2023-11-19T14:22:12;105.37;;;9.70;;
29026;SDS011;16120;48.608;9.092;2023-11-19T14:26:07;105.03;;;9.23;;
29026;SDS011;16120;48.608;9.092;2023-11-19T14:30:03;104.57;;;8.50;;
29026;SDS011;16120;48.608;9.092;2023-11-19T14:33:59;105.17;;;9.33;;
29026;SDS011;16120;48.608;9.092;2023-11-19T14:37:55;104.97;;;9.30;;
29026;SDS011;16120;48.608;9.092;2023-11-19T14:41:50;104.60;;;8.93;;
29026;SDS011;16120;48.608;9.092;2023-11-19T14:45:45;105.17;;;9.10;;
29026;SDS011;16120;48.608;9.092;2023-11-19T14:49:42;104.97;;;8.53;;
29026;SDS011;16120;48.608;9.092;2023-11-19T14:53:37;105.17;;;8.83;;
29026;SDS011;16120;48.608;9.092;2023-11-19T14:57:32;104.73;;;8.70;;
29026;SDS011;16120;48.608;9.092;2023-11-19T15:01:27;105.37;;;8.60;;
29026;SDS011;16120;48.608;9.092;2023-11-19T15:05:27;105.07;;;8.63;;
29026;SDS011;16120;48.608;9.092;2023-11-19T15:09:22;105.43;;;8.23;;
29026;SDS011;16120;48.608;9.092;2023-11-19T15:13:17;104.80;;;8.07;;
29026;SDS011;16120;48.608;9.092;2023-11-19T15:17:13;105.47;;;8.03;;
29026;SDS011;16120;48.608;9.092;2023-11-19T15:21:09;105.03;;;7.90;;
29026;SDS011;16120;48.608;9.092;2023-11-19T15:25:04;105.57;;;8.27;;
29026;SDS011;16120;48.608;9.092;2023-11-19T15:29:00;106.17;;;8.77;;
29026;SDS011;16120;48.608;9.092;2023-11-19T15:32:55;105.93;;;8.40;;
29026;SDS011;16120;48.608;9.092;2023-11-19T15:36:52;106.17;;;8.27;;
29026;SDS011;16120;48.608;9.092;2023-11-19T15:40:47;106.20;;;8.40;;
29026;SDS011;16120;48.608;9.092;2023-11-19T15:44:42;106.10;;;7.80;;
29026;SDS011;16120;48.608;9.092;2023-11-19T15:48:37;106.47;;;8.90;;
29026;SDS011;16120;48.608;9.092;2023-11-19T15:52:34;106.13;;;8.25;;
29026;SDS011;16120;48.608;9.092;2023-11-19T15:56:29;106.77;;;8.70;;
29026;SDS011;16120;48.608;9.092;2023-11-19T16:00:24;106.90;;;8.90;;
29026;SDS011;16120;48.608;9.092;2023-11-19T16:04:19;106.75;;;8.27;;
29026;SDS011;16120;48.608;9.092;2023-11-19T16:08:16;107.17;;;8.53;;
29026;SDS011;16120;48.608;9.092;2023-11-19T16:12:11;106.97;;;8.10;;
29026;SDS011;16120;48.608;9.092;2023-11-19T16:16:07;107.40;;;8.97;;
29026;SDS011;16120;48.608;9.092;2023-11-19T16:20:02;107.40;;;8.60;;
29026;SDS011;16120;48.608;9.092;2023-11-19T16:23:59;107.67;;;8.47;;
29026;SDS011;16120;48.608;9.092;2023-11-19T16:27:54;107.30;;;8.50;;
29026;SDS011;16120;48.608;9.092;2023-11-19T16:31:49;107.80;;;8.43;;
29026;SDS011;16120;48.608;9.092;2023-11-19T16:35:44;107.50;;;8.40;;
29026;SDS011;16120;48.608;9.092;2023-11-19T16:39:41;108.63;;;8.47;;
29026;SDS011;16120;48.608;9.092;2023-11-19T16:43:36;108.90;;;8.83;;
29026;SDS011;16120;48.608;9.092;2023-11-19T16:47:32;108.00;;;8.60;;
29026;SDS011;16120;48.608;9.092;2023-11-19T16:51:27;108.47;;;8.87;;
29026;SDS011;16120;48.608;9.092;2023-11-19T16:55:23;107.87;;;8.00;;
29026;SDS011;16120;48.608;9.092;2023-11-19T16:59:19;108.27;;;8.57;;
29026;SDS011;16120;48.608;9.092;2023-11-19T17:03:14;108.77;;;8.17;;
29026;SDS011;16120;48.608;9.092;2023-11-19T17:07:09;108.67;;;8.20;;
29026;SDS011;16120;48.608;9.092;2023-11-19T17:11:06;109.03;;;7.97;;
29026;SDS011;16120;48.608;9.092;2023-11-19T17:15:01;108.97;;;8.37;;
29026;SDS011;16120;48.608;9.092;2023-11-19T17:18:56;108.38;;;8.13;;
29026;SDS011;16120;48.608;9.092;2023-11-19T17:22:51;108.73;;;8.47;;
29026;SDS011;16120;48.608;9.092;2023-11-19T17:26:49;108.17;;;7.87;;
29026;SDS011;16120;48.608;9.092;2023-11-19T17:30:44;109.43;;;8.37;;
29026;SDS011;16120;48.608;9.092;2023-11-19T17:34:40;109.00;;;7.97;;
29026;SDS011;16120;48.608;9.092;2023-11-19T17:38:35;108.77;;;8.27;;
29026;SDS011;16120;48.608;9.092;2023-11-19T17:42:31;109.57;;;8.27;;
29026;SDS011;16120;48.608;9.092;2023-11-19T17:46:26;108.83;;;8.07;;
29026;SDS011;16120;48.608;9.092;2023-11-19T17:50:22;110.07;;;8.10;;
29026;SDS011;16120;48.608;9.092;2023-11-19T17:54:17;109.87;;;8.13;;
29026;SDS011;16120;48.608;9.092;2023-11-19T17:58:14;109.40;;;7.87;;
29026;SDS011;16120;48.608;9.092;2023-11-19T18:02:09;110.07;;;7.47;;
29026;SDS011;16120;48.608;9.092;2023-11-19T18:06:04;109.90;;;7.70;;
29026;SDS011;16120;48.608;9.092;2023-11-19T18:10:00;110.07;;;7.60;;
29026;SDS011;16120;48.608;9.092;2023-11-19T18:13:56;108.87;;;7.47;;
29026;SDS011;16120;48.608;9.092;2023-11-19T18:17:51;109.93;;;7.90;;
29026;SDS011;16120;48.608;9.092;2023-11-19T18:21:47;110.30;;;8.03;;
29026;SDS011;16120;48.608;9.092;2023-11-19T18:25:42;109.75;;;8.00;;
29026;SDS011;16120;48.608;9.092;2023-11-19T18:29:38;108.90;;;7.77;;
29026;SDS011;16120;48.608;9.092;2023-11-19T18:33:34;108.37;;;7.50;;
29026;SDS011;16120;48.608;9.092;2023-11-19T18:37:29;110.27;;;7.97;;
29026;SDS011;16120;48.608;9.092;2023-11-19T18:41:24;108.77;;;7.50;;
29026;SDS011;16120;48.608;9.092;2023-11-19T18:45:20;109.20;;;7.50;;
29026;SDS011;16120;48.608;9.092;2023-11-19T18:49:16;108.90;;;7.27;;
29026;SDS011;16120;48.608;9.092;2023-11-19T18:53:11;109.63;;;7.70;;
29026;SDS011;16120;48.608;9.092;2023-11-19T18:57:06;109.07;;;7.50;;
29026;SDS011;16120;48.608;9.092;2023-11-19T19:01:03;109.10;;;7.20;;
29026;SDS011;16120;48.608;9.092;2023-11-19T19:04:59;109.57;;;7.67;;
29026;SDS011;16120;48.608;9.092;2023-11-19T19:08:54;109.20;;;7.80;;
29026;SDS011;16120;48.608;9.092;2023-11-19T19:12:50;108.67;;;7.40;;
29026;SDS011;16120;48.608;9.092;2023-11-19T19:16:46;109.50;;;7.53;;
29026;SDS011;16120;48.608;9.092;2023-11-19T19:20:42;109.10;;;7.60;;
29026;SDS011;16120;48.608;9.092;2023-11-19T19:24:38;109.10;;;7.80;;
29026;SDS011;16120;48.608;9.092;2023-11-19T19:28:33;108.85;;;7.55;;
29026;SDS011;16120;48.608;9.092;2023-11-19T19:32:29;110.07;;;7.87;;
29026;SDS011;16120;48.608;9.092;2023-11-19T19:36:25;109.80;;;7.60;;
29026;SDS011;16120;48.608;9.092;2023-11-19T19:40:20;109.67;;;7.63;;
29026;SDS011;16120;48.608;9.092;2023-11-19T19:44:15;109.97;;;8.10;;
29026;SDS011;16120;48.608;9.092;2023-11-19T19:48:12;108.77;;;7.67;;
29026;SDS011;16120;48.608;9.092;2023-11-19T19:52:07;108.77;;;7.53;;
29026;SDS011;16120;48.608;9.092;2023-11-19T19:56:02;109.77;;;7.50;;
29026;SDS011;16120;48.608;9.092;2023-11-19T19:59:58;109.67;;;7.50;;
29026;SDS011;16120;48.608;9.092;2023-11-19T20:03:54;109.90;;;7.53;;
29026;SDS011;16120;48.608;9.092;2023-11-19T20:07:49;109.00;;;8.03;;
29026;SDS011;16120;48.608;9.092;2023-11-19T20:11:45;109.70;;;7.67;;
29026;SDS011;16120;48.608;9.092;2023-11-19T20:15:40;109.70;;;7.60;;
29026;SDS011;16120;48.608;9.092;2023-11-19T20:19:36;108.65;;;8.00;;
29026;SDS011;16120;48.608;9.092;2023-11-19T20:23:32;108.60;;;7.67;;
29026;SDS011;16120;48.608;9.092;2023-11-19T20:27:27;109.30;;;7.37;;
29026;SDS011;16120;48.608;9.092;2023-11-19T20:31:22;109.23;;;7.70;;
29026;SDS011;16120;48.608;9.092;2023-11-19T20:35:18;109.83;;;7.77;;
29026;SDS011;16120;48.608;9.092;2023-11-19T20:39:14;109.00;;;7.77;;
29026;SDS011;16120;48.608;9.092;2023-11-19T20:43:09;108.80;;;8.07;;
29026;SDS011;16120;48.608;9.092;2023-11-19T20:47:04;109.50;;;7.57;;
29026;SDS011;16120;48.608;9.092;2023-11-19T20:51:01;109.93;;;7.90;;
29026;SDS011;16120;48.608;9.092;2023-11-19T20:54:56;109.43;;;7.83;;
29026;SDS011;16120;48.608;9.092;2023-11-19T20:58:51;108.03;;;8.05;;
29026;SDS011;16120;48.608;9.092;2023-11-19T21:02:46;109.80;;;7.90;;
29026;SDS011;16120;48.608;9.092;2023-11-19T21:06:43;109.00;;;7.77;;
29026;SDS011;16120;48.608;9.092;2023-11-19T21:10:38;109.60;;;7.90;;
29026;SDS011;16120;48.608;9.092;2023-11-19T21:14:33;108.27;;;7.70;;
29026;SDS011;16120;48.608;9.092;2023-11-19T21:18:29;108.47;;;7.83;;
29026;SDS011;16120;48.608;9.092;2023-11-19T21:22:25;108.73;;;8.07;;
29026;SDS011;16120;48.608;9.092;2023-11-19T21:26:21;109.07;;;7.73;;
29026;SDS011;16120;48.608;9.092;2023-11-19T21:30:16;108.70;;;7.87;;
29026;SDS011;16120;48.608;9.092;2023-11-19T21:34:11;109.87;;;7.97;;
29026;SDS011;16120;48.608;9.092;2023-11-19T21:38:08;109.97;;;8.80;;
29026;SDS011;16120;48.608;9.092;2023-11-19T21:42:03;109.37;;;8.03;;
29026;SDS011;16120;48.608;9.092;2023-11-19T21:45:58;109.97;;;7.60;;
29026;SDS011;16120;48.608;9.092;2023-11-19T21:49:54;110.13;;;8.27;;
29026;SDS011;16120;48.608;9.092;2023-11-19T21:53:50;109.27;;;8.20;;
29026;SDS011;16120;48.608;9.092;2023-11-19T21:57:45;109.97;;;8.30;;
29026;SDS011;16120;48.608;9.092;2023-11-19T22:01:41;108.57;;;7.53;;
29026;SDS011;16120;48.608;9.092;2023-11-19T22:05:36;108.97;;;8.00;;
29026;SDS011;16120;48.608;9.092;2023-11-19T22:09:32;109.57;;;7.37;;
29026;SDS011;16120;48.608;9.092;2023-11-19T22:13:28;109.20;;;7.90;;
29026;SDS011;16120;48.608;9.092;2023-11-19T22:17:23;109.57;;;7.33;;
29026;SDS011;16120;48.608;9.092;2023-11-19T22:21:18;109.47;;;7.77;;
29026;SDS011;16120;48.608;9.092;2023-11-19T22:25:15;108.97;;;7.82;;
29026;SDS011;16120;48.608;9.092;2023-11-19T22:29:10;111.03;;;8.07;;
29026;SDS011;16120;48.608;9.092;2023-11-19T22:33:05;110.03;;;7.78;;
29026;SDS011;16120;48.608;9.092;2023-11-19T22:37:00;110.03;;;7.97;;
29026;SDS011;16120;48.608;9.092;2023-11-19T22:40:57;110.23;;;7.70;;
29026;SDS011;16120;48.608;9.092;2023-11-19T22:44:52;110.07;;;8.10;;
29026;SDS011;16120;48.608;9.092;2023-11-19T22:48:47;110.23;;;7.67;;
29026;SDS011;16120;48.608;9.092;2023-11-19T22:52:42;110.33;;;7.63;;
29026;SDS011;16120;48.608;9.092;2023-11-19T22:56:39;110.23;;;7.67;;
29026;SDS011;16120;48.608;9.092;2023-11-19T23:00:34;109.27;;;7.77;;
29026;SDS011;16120;48.608;9.092;2023-11-19T23:04:29;109.43;;;7.70;;
29026;SDS011;16120;48.608;9.092;2023-11-19T23:08:25;109.50;;;7.63;;
29026;SDS011;16120;48.608;9.092;2023-11-19T23:12:21;108.90;;;7.90;;
29026;SDS011;16120;48.608;9.092;2023-11-19T23:16:17;108.97;;;7.53;;
29026;SDS011;16120;48.608;9.092;2023-11-19T23:20:12;109.78;;;8.23;;
29026;SDS011;16120;48.608;9.092;2023-11-19T23:24:07;110.00;;;7.67;;
29026;SDS011;16120;48.608;9.092;2023-11-19T23:28:04;110.07;;;7.53;;
29026;SDS011;16120;48.608;9.092;2023-11-19T23:31:59;109.40;;;8.00;;
29026;SDS011;16120;48.608;9.092;2023-11-19T23:35:54;109.37;;;7.67;;
29026;SDS011;16120;48.608;9.092;2023-11-19T23:39:49;109.87;;;7.70;;
29026;SDS011;16120;48.608;9.092;2023-11-19T23:43:46;110.07;;;7.40;;
29026;SDS011;16120;48.608;9.092;2023-11-19T23:47:41;109.37;;;7.33;;
29026;SDS011;16120;48.608;9.092;2023-11-19T23:51:37;110.17;;;7.90;;
29026;SDS011;16120;48.608;9.092;2023-11-19T23:55:32;109.20;;;7.57;;
29026;SDS011;16120;48.608;9.092;2023-11-19T23:59:28;108.93;;;7.50;;
